sensor_id;sensor_type;location;lat;lon;timestamp;temperature;humidity
31263;DHT22;17892;52.080;9.006;2024-03-06T00:00:28;6.80;99.90
31263;DHT22;17892;52.080;9.006;2024-03-06T00:02:54;6.90;99.90
31263;DHT22;17892;52.080;9.006;2024-03-06T00:05:20;6.90;99.90
31263;DHT22;17892;52.080;9.006;2024-03-06T00:07:46;6.90;99.90
31263;DHT22;17892;52.080;9.006;2024-03-06T00:10:11;7.00;99.90
31263;DHT22;17892;52.080;9.006;2024-03-06T00:12:37;7.00;99.90
31263;DHT22;17892;52.080;9.006;2024-03-06T00:15:03;7.00;99.90
31263;DHT22;17892;52.080;9.006;2024-03-06T00:17:29;7.00;99.90
31263;DHT22;17892;52.080;9.006;2024-03-06T00:19:55;7.10;99.90
31263;DHT22;17892;52.080;9.006;2024-03-06T00:22:20;7.10;99.90
31263;DHT22;17892;52.080;9.006;2024-03-06T00:24:46;7.10;99.90
31263;DHT22;17892;52.080;9.006;2024-03-06T00:27:13;7.10;99.90
31263;DHT22;17892;52.080;9.006;2024-03-06T00:29:39;7.10;99.90
31263;DHT22;17892;52.080;9.006;2024-03-06T00:32:05;7.10;99.90
31263;DHT22;17892;52.080;9.006;2024-03-06T00:34:30;7.10;99.90
31263;DHT22;17892;52.080;9.006;2024-03-06T00:36:57;7.10;99.90
31263;DHT22;17892;52.080;9.006;2024-03-06T00:39:22;7.10;99.90
31263;DHT22;17892;52.080;9.006;2024-03-06T00:41:48;7.10;99.90
31263;DHT22;17892;52.080;9.006;2024-03-06T00:44:14;7.10;99.90
31263;DHT22;17892;52.080;9.006;2024-03-06T00:46:40;7.10;99.90
31263;DHT22;17892;52.080;9.006;2024-03-06T00:49:06;7.00;99.90
31263;DHT22;17892;52.080;9.006;2024-03-06T00:51:32;7.00;99.90
31263;DHT22;17892;52.080;9.006;2024-03-06T00:54:01;7.00;99.90
31263;DHT22;17892;52.080;9.006;2024-03-06T00:56:27;7.00;99.90
31263;DHT22;17892;52.080;9.006;2024-03-06T00:58:52;7.00;99.90
31263;DHT22;17892;52.080;9.006;2024-03-06T01:01:18;7.10;99.90
31263;DHT22;17892;52.080;9.006;2024-03-06T01:03:44;7.10;99.90
31263;DHT22;17892;52.080;9.006;2024-03-06T01:06:10;7.10;99.90
31263;DHT22;17892;52.080;9.006;2024-03-06T01:08:36;7.00;99.90
31263;DHT22;17892;52.080;9.006;2024-03-06T01:11:01;7.10;99.90
31263;DHT22;17892;52.080;9.006;2024-03-06T01:13:28;7.00;99.90
31263;DHT22;17892;52.080;9.006;2024-03-06T01:15:54;7.00;99.90
31263;DHT22;17892;52.080;9.006;2024-03-06T01:18:20;7.00;99.90
31263;DHT22;17892;52.080;9.006;2024-03-06T01:20:46;7.00;99.90
31263;DHT22;17892;52.080;9.006;2024-03-06T01:23:11;7.00;99.90
31263;DHT22;17892;52.080;9.006;2024-03-06T01:25:37;7.00;99.90
31263;DHT22;17892;52.080;9.006;2024-03-06T01:28:03;6.90;99.90
31263;DHT22;17892;52.080;9.006;2024-03-06T01:30:29;6.90;99.90
31263;DHT22;17892;52.080;9.006;2024-03-06T01:32:54;6.90;99.90
31263;DHT22;17892;52.080;9.006;2024-03-06T01:35:20;6.90;99.90
31263;DHT22;17892;52.080;9.006;2024-03-06T01:37:46;6.90;99.90
31263;DHT22;17892;52.080;9.006;2024-03-06T01:40:11;6.90;99.90
31263;DHT22;17892;52.080;9.006;2024-03-06T01:42:38;6.90;99.90
31263;DHT22;17892;52.080;9.006;2024-03-06T01:45:04;6.90;99.90
31263;DHT22;17892;52.080;9.006;2024-03-06T01:47:30;6.90;99.90
31263;DHT22;17892;52.080;9.006;2024-03-06T01:49:56;6.90;99.90
31263;DHT22;17892;52.080;9.006;2024-03-06T01:52:22;6.90;99.90
31263;DHT22;17892;52.080;9.006;2024-03-06T01:58:29;6.90;99.90
31263;DHT22;17892;52.080;9.006;2024-03-06T02:00:56;6.90;99.90
31263;DHT22;17892;52.080;9.006;2024-03-06T02:03:22;6.80;99.90
31263;DHT22;17892;52.080;9.006;2024-03-06T02:05:51;6.80;99.90
31263;DHT22;17892;52.080;9.006;2024-03-06T02:08:18;6.80;99.90
31263;DHT22;17892;52.080;9.006;2024-03-06T02:10:44;6.80;99.90
31263;DHT22;17892;52.080;9.006;2024-03-06T02:13:11;6.80;99.90
31263;DHT22;17892;52.080;9.006;2024-03-06T02:15:37;6.70;99.90
31263;DHT22;17892;52.080;9.006;2024-03-06T02:18:06;6.70;99.90
31263;DHT22;17892;52.080;9.006;2024-03-06T02:20:33;6.70;99.90
31263;DHT22;17892;52.080;9.006;2024-03-06T02:23:00;6.70;99.90
31263;DHT22;17892;52.080;9.006;2024-03-06T02:25:25;6.70;99.90
31263;DHT22;17892;52.080;9.006;2024-03-06T02:27:51;6.70;99.90
31263;DHT22;17892;52.080;9.006;2024-03-06T02:30:20;6.70;99.90
31263;DHT22;17892;52.080;9.006;2024-03-06T02:32:46;6.70;99.90
31263;DHT22;17892;52.080;9.006;2024-03-06T02:35:12;6.70;99.90
31263;DHT22;17892;52.080;9.006;2024-03-06T02:37:40;6.60;99.90
31263;DHT22;17892;52.080;9.006;2024-03-06T02:40:07;6.70;99.90
31263;DHT22;17892;52.080;9.006;2024-03-06T02:42:35;6.70;99.90
31263;DHT22;17892;52.080;9.006;2024-03-06T02:45:05;6.70;99.90
31263;DHT22;17892;52.080;9.006;2024-03-06T02:47:31;6.70;99.90
31263;DHT22;17892;52.080;9.006;2024-03-06T02:49:57;6.70;99.90
31263;DHT22;17892;52.080;9.006;2024-03-06T02:52:23;6.70;99.90
31263;DHT22;17892;52.080;9.006;2024-03-06T02:54:48;6.70;99.90
31263;DHT22;17892;52.080;9.006;2024-03-06T02:57:14;6.70;99.90
31263;DHT22;17892;52.080;9.006;2024-03-06T03:02:19;6.80;99.90
31263;DHT22;17892;52.080;9.006;2024-03-06T03:04:45;6.80;99.90
31263;DHT22;17892;52.080;9.006;2024-03-06T03:07:11;6.80;99.90
31263;DHT22;17892;52.080;9.006;2024-03-06T03:09:37;6.80;99.90
31263;DHT22;17892;52.080;9.006;2024-03-06T03:12:04;6.80;99.90
31263;DHT22;17892;52.080;9.006;2024-03-06T03:14:30;6.90;99.90
31263;DHT22;17892;52.080;9.006;2024-03-06T03:16:56;6.90;99.90
31263;DHT22;17892;52.080;9.006;2024-03-06T03:19:21;6.90;99.90
31263;DHT22;17892;52.080;9.006;2024-03-06T03:21:47;7.00;99.90
31263;DHT22;17892;52.080;9.006;2024-03-06T03:24:13;7.00;99.90
31263;DHT22;17892;52.080;9.006;2024-03-06T03:26:38;7.00;99.90
31263;DHT22;17892;52.080;9.006;2024-03-06T03:29:04;7.10;99.90
31263;DHT22;17892;52.080;9.006;2024-03-06T03:31:30;7.10;99.90
31263;DHT22;17892;52.080;9.006;2024-03-06T03:33:56;7.10;99.90
31263;DHT22;17892;52.080;9.006;2024-03-06T03:36:22;7.10;99.90
31263;DHT22;17892;52.080;9.006;2024-03-06T03:38:48;7.20;99.90
31263;DHT22;17892;52.080;9.006;2024-03-06T03:41:13;7.20;99.90
31263;DHT22;17892;52.080;9.006;2024-03-06T03:43:40;7.20;99.90
31263;DHT22;17892;52.080;9.006;2024-03-06T03:46:07;7.20;99.90
31263;DHT22;17892;52.080;9.006;2024-03-06T03:48:33;7.20;99.90
31263;DHT22;17892;52.080;9.006;2024-03-06T03:51:05;7.20;99.90
31263;DHT22;17892;52.080;9.006;2024-03-06T03:53:32;7.20;99.90
31263;DHT22;17892;52.080;9.006;2024-03-06T03:55:59;7.20;99.90
31263;DHT22;17892;52.080;9.006;2024-03-06T03:58:25;7.20;99.90
31263;DHT22;17892;52.080;9.006;2024-03-06T04:00:50;7.30;99.90
31263;DHT22;17892;52.080;9.006;2024-03-06T04:03:20;7.30;99.90
31263;DHT22;17892;52.080;9.006;2024-03-06T04:05:47;7.30;99.90
31263;DHT22;17892;52.080;9.006;2024-03-06T04:08:13;7.30;99.90
31263;DHT22;17892;52.080;9.006;2024-03-06T04:10:39;7.30;99.90
31263;DHT22;17892;52.080;9.006;2024-03-06T04:13:05;7.30;99.90
31263;DHT22;17892;52.080;9.006;2024-03-06T04:15:31;7.30;99.90
31263;DHT22;17892;52.080;9.006;2024-03-06T04:17:57;7.30;99.90
31263;DHT22;17892;52.080;9.006;2024-03-06T04:20:23;7.30;99.90
31263;DHT22;17892;52.080;9.006;2024-03-06T04:22:49;7.30;99.90
31263;DHT22;17892;52.080;9.006;2024-03-06T04:25:16;7.30;99.90
31263;DHT22;17892;52.080;9.006;2024-03-06T04:27:42;7.30;99.90
31263;DHT22;17892;52.080;9.006;2024-03-06T04:30:08;7.30;99.90
31263;DHT22;17892;52.080;9.006;2024-03-06T04:32:34;7.30;99.90
31263;DHT22;17892;52.080;9.006;2024-03-06T04:35:00;7.30;99.90
31263;DHT22;17892;52.080;9.006;2024-03-06T04:37:26;7.30;99.90
31263;DHT22;17892;52.080;9.006;2024-03-06T04:39:52;7.30;99.90
31263;DHT22;17892;52.080;9.006;2024-03-06T04:42:18;7.30;99.90
31263;DHT22;17892;52.080;9.006;2024-03-06T04:44:45;7.20;99.90
31263;DHT22;17892;52.080;9.006;2024-03-06T04:47:11;7.30;99.90
31263;DHT22;17892;52.080;9.006;2024-03-06T04:49:37;7.20;99.90
31263;DHT22;17892;52.080;9.006;2024-03-06T04:52:03;7.20;99.90
31263;DHT22;17892;52.080;9.006;2024-03-06T04:54:29;7.20;99.90
31263;DHT22;17892;52.080;9.006;2024-03-06T04:56:55;7.30;99.90
31263;DHT22;17892;52.080;9.006;2024-03-06T04:59:21;7.30;99.90
31263;DHT22;17892;52.080;9.006;2024-03-06T05:01:47;7.20;99.90
31263;DHT22;17892;52.080;9.006;2024-03-06T05:04:12;7.20;99.90
31263;DHT22;17892;52.080;9.006;2024-03-06T05:06:38;7.20;99.90
31263;DHT22;17892;52.080;9.006;2024-03-06T05:09:04;7.20;99.90
31263;DHT22;17892;52.080;9.006;2024-03-06T05:11:31;7.20;99.90
31263;DHT22;17892;52.080;9.006;2024-03-06T05:14:00;7.20;99.90
31263;DHT22;17892;52.080;9.006;2024-03-06T05:16:26;7.20;99.90
31263;DHT22;17892;52.080;9.006;2024-03-06T05:18:52;7.20;99.90
31263;DHT22;17892;52.080;9.006;2024-03-06T05:21:18;7.10;99.90
31263;DHT22;17892;52.080;9.006;2024-03-06T05:23:45;7.10;99.90
31263;DHT22;17892;52.080;9.006;2024-03-06T05:26:10;7.10;99.90
31263;DHT22;17892;52.080;9.006;2024-03-06T05:28:36;7.10;99.90
31263;DHT22;17892;52.080;9.006;2024-03-06T05:31:16;7.00;99.90
31263;DHT22;17892;52.080;9.006;2024-03-06T05:33:49;7.10;99.90
31263;DHT22;17892;52.080;9.006;2024-03-06T05:36:15;7.00;99.90
31263;DHT22;17892;52.080;9.006;2024-03-06T05:38:41;7.00;99.90
31263;DHT22;17892;52.080;9.006;2024-03-06T05:41:07;7.00;99.90
31263;DHT22;17892;52.080;9.006;2024-03-06T05:43:34;7.00;99.90
31263;DHT22;17892;52.080;9.006;2024-03-06T05:46:00;7.00;99.90
31263;DHT22;17892;52.080;9.006;2024-03-06T05:48:26;7.10;99.90
31263;DHT22;17892;52.080;9.006;2024-03-06T05:50:52;7.10;99.90
31263;DHT22;17892;52.080;9.006;2024-03-06T05:53:18;7.10;99.90
31263;DHT22;17892;52.080;9.006;2024-03-06T05:55:45;7.20;99.90
31263;DHT22;17892;52.080;9.006;2024-03-06T05:58:10;7.20;99.90
31263;DHT22;17892;52.080;9.006;2024-03-06T06:00:36;7.30;99.90
31263;DHT22;17892;52.080;9.006;2024-03-06T06:03:01;7.30;99.90
31263;DHT22;17892;52.080;9.006;2024-03-06T06:05:28;7.40;99.90
31263;DHT22;17892;52.080;9.006;2024-03-06T06:07:53;7.40;99.90
31263;DHT22;17892;52.080;9.006;2024-03-06T06:10:19;7.50;99.90
31263;DHT22;17892;52.080;9.006;2024-03-06T06:12:45;7.50;99.90
31263;DHT22;17892;52.080;9.006;2024-03-06T06:15:11;7.50;99.90
31263;DHT22;17892;52.080;9.006;2024-03-06T06:17:36;7.50;99.90
31263;DHT22;17892;52.080;9.006;2024-03-06T06:20:06;7.50;99.90
31263;DHT22;17892;52.080;9.006;2024-03-06T06:22:36;7.50;99.90
31263;DHT22;17892;52.080;9.006;2024-03-06T06:25:02;7.60;99.90
31263;DHT22;17892;52.080;9.006;2024-03-06T06:27:28;7.60;99.90
31263;DHT22;17892;52.080;9.006;2024-03-06T06:29:54;7.60;99.90
31263;DHT22;17892;52.080;9.006;2024-03-06T06:32:20;7.60;99.90
31263;DHT22;17892;52.080;9.006;2024-03-06T06:34:46;7.70;99.90
31263;DHT22;17892;52.080;9.006;2024-03-06T06:37:12;7.70;99.90
31263;DHT22;17892;52.080;9.006;2024-03-06T06:39:38;7.70;99.90
31263;DHT22;17892;52.080;9.006;2024-03-06T06:42:03;7.70;99.90
31263;DHT22;17892;52.080;9.006;2024-03-06T06:44:29;7.70;99.90
31263;DHT22;17892;52.080;9.006;2024-03-06T06:46:55;7.80;99.90
31263;DHT22;17892;52.080;9.006;2024-03-06T06:49:21;7.80;99.90
31263;DHT22;17892;52.080;9.006;2024-03-06T06:51:47;7.80;99.90
31263;DHT22;17892;52.080;9.006;2024-03-06T06:54:14;7.80;99.90
31263;DHT22;17892;52.080;9.006;2024-03-06T06:56:40;7.90;99.90
31263;DHT22;17892;52.080;9.006;2024-03-06T06:59:06;7.90;99.90
31263;DHT22;17892;52.080;9.006;2024-03-06T07:01:31;8.00;99.90
31263;DHT22;17892;52.080;9.006;2024-03-06T07:03:58;8.00;99.90
31263;DHT22;17892;52.080;9.006;2024-03-06T07:06:24;8.00;99.90
31263;DHT22;17892;52.080;9.006;2024-03-06T07:08:50;8.00;99.90
31263;DHT22;17892;52.080;9.006;2024-03-06T07:11:17;8.00;99.90
31263;DHT22;17892;52.080;9.006;2024-03-06T07:13:43;8.00;99.90
31263;DHT22;17892;52.080;9.006;2024-03-06T07:16:09;8.10;99.90
31263;DHT22;17892;52.080;9.006;2024-03-06T07:18:35;8.10;99.90
31263;DHT22;17892;52.080;9.006;2024-03-06T07:21:00;8.10;99.90
31263;DHT22;17892;52.080;9.006;2024-03-06T07:23:26;8.10;99.90
31263;DHT22;17892;52.080;9.006;2024-03-06T07:25:52;8.10;99.90
31263;DHT22;17892;52.080;9.006;2024-03-06T07:28:18;8.20;99.90
31263;DHT22;17892;52.080;9.006;2024-03-06T07:30:44;8.30;99.90
31263;DHT22;17892;52.080;9.006;2024-03-06T07:33:10;8.30;99.90
31263;DHT22;17892;52.080;9.006;2024-03-06T07:35:35;8.30;99.90
31263;DHT22;17892;52.080;9.006;2024-03-06T07:38:02;8.40;99.90
31263;DHT22;17892;52.080;9.006;2024-03-06T07:40:30;8.40;99.90
31263;DHT22;17892;52.080;9.006;2024-03-06T07:42:57;8.40;99.90
31263;DHT22;17892;52.080;9.006;2024-03-06T07:45:23;8.40;99.90
31263;DHT22;17892;52.080;9.006;2024-03-06T07:47:48;8.40;99.90
31263;DHT22;17892;52.080;9.006;2024-03-06T07:50:14;8.40;99.90
31263;DHT22;17892;52.080;9.006;2024-03-06T07:52:45;8.40;99.90
31263;DHT22;17892;52.080;9.006;2024-03-06T07:55:11;8.40;99.90
31263;DHT22;17892;52.080;9.006;2024-03-06T07:57:37;8.50;99.90
31263;DHT22;17892;52.080;9.006;2024-03-06T08:00:04;8.50;99.90
31263;DHT22;17892;52.080;9.006;2024-03-06T08:02:42;8.50;99.90
31263;DHT22;17892;52.080;9.006;2024-03-06T08:05:15;8.50;99.90
31263;DHT22;17892;52.080;9.006;2024-03-06T08:07:42;8.50;99.90
31263;DHT22;17892;52.080;9.006;2024-03-06T08:10:11;8.60;99.90
31263;DHT22;17892;52.080;9.006;2024-03-06T08:12:42;8.60;99.90
31263;DHT22;17892;52.080;9.006;2024-03-06T08:15:10;8.60;99.90
31263;DHT22;17892;52.080;9.006;2024-03-06T08:17:42;8.70;99.90
31263;DHT22;17892;52.080;9.006;2024-03-06T08:20:09;8.70;99.90
31263;DHT22;17892;52.080;9.006;2024-03-06T08:22:40;8.70;99.90
31263;DHT22;17892;52.080;9.006;2024-03-06T08:25:12;8.70;99.90
31263;DHT22;17892;52.080;9.006;2024-03-06T08:27:40;8.70;99.90
31263;DHT22;17892;52.080;9.006;2024-03-06T08:30:07;8.80;99.90
31263;DHT22;17892;52.080;9.006;2024-03-06T08:32:35;8.80;99.90
31263;DHT22;17892;52.080;9.006;2024-03-06T08:35:08;8.70;99.90
31263;DHT22;17892;52.080;9.006;2024-03-06T08:37:41;8.80;99.90
31263;DHT22;17892;52.080;9.006;2024-03-06T08:40:07;8.80;99.90
31263;DHT22;17892;52.080;9.006;2024-03-06T08:42:35;8.80;99.90
31263;DHT22;17892;52.080;9.006;2024-03-06T08:45:02;8.80;99.90
31263;DHT22;17892;52.080;9.006;2024-03-06T08:47:28;8.80;99.90
31263;DHT22;17892;52.080;9.006;2024-03-06T08:49:53;8.80;99.90
31263;DHT22;17892;52.080;9.006;2024-03-06T08:52:19;8.90;99.90
31263;DHT22;17892;52.080;9.006;2024-03-06T08:54:46;8.90;99.90
31263;DHT22;17892;52.080;9.006;2024-03-06T08:57:12;8.90;99.90
31263;DHT22;17892;52.080;9.006;2024-03-06T08:59:38;9.00;99.90
31263;DHT22;17892;52.080;9.006;2024-03-06T09:02:14;9.00;99.90
31263;DHT22;17892;52.080;9.006;2024-03-06T09:04:42;9.10;99.90
31263;DHT22;17892;52.080;9.006;2024-03-06T09:07:08;9.10;99.90
31263;DHT22;17892;52.080;9.006;2024-03-06T09:09:35;9.10;99.90
31263;DHT22;17892;52.080;9.006;2024-03-06T09:12:01;9.20;99.90
31263;DHT22;17892;52.080;9.006;2024-03-06T09:14:29;9.20;99.90
31263;DHT22;17892;52.080;9.006;2024-03-06T09:16:55;9.30;99.90
31263;DHT22;17892;52.080;9.006;2024-03-06T09:19:20;9.30;99.90
31263;DHT22;17892;52.080;9.006;2024-03-06T09:21:46;9.30;99.90
31263;DHT22;17892;52.080;9.006;2024-03-06T09:24:12;9.30;99.90
31263;DHT22;17892;52.080;9.006;2024-03-06T09:26:37;9.30;99.90
31263;DHT22;17892;52.080;9.006;2024-03-06T09:29:03;9.30;99.90
31263;DHT22;17892;52.080;9.006;2024-03-06T09:31:29;9.30;99.90
31263;DHT22;17892;52.080;9.006;2024-03-06T09:33:55;9.30;99.90
31263;DHT22;17892;52.080;9.006;2024-03-06T09:36:20;9.30;99.90
31263;DHT22;17892;52.080;9.006;2024-03-06T09:38:46;9.30;99.90
31263;DHT22;17892;52.080;9.006;2024-03-06T09:41:12;9.30;99.90
31263;DHT22;17892;52.080;9.006;2024-03-06T09:43:38;9.30;99.90
31263;DHT22;17892;52.080;9.006;2024-03-06T09:46:06;9.30;99.90
31263;DHT22;17892;52.080;9.006;2024-03-06T09:48:33;9.40;99.90
31263;DHT22;17892;52.080;9.006;2024-03-06T09:51:02;9.40;99.90
31263;DHT22;17892;52.080;9.006;2024-03-06T09:53:28;9.40;99.90
31263;DHT22;17892;52.080;9.006;2024-03-06T09:55:56;9.40;99.90
31263;DHT22;17892;52.080;9.006;2024-03-06T09:58:23;9.40;99.90
31263;DHT22;17892;52.080;9.006;2024-03-06T10:00:50;9.40;99.90
31263;DHT22;17892;52.080;9.006;2024-03-06T10:03:16;9.50;99.90
31263;DHT22;17892;52.080;9.006;2024-03-06T10:05:42;9.50;99.90
31263;DHT22;17892;52.080;9.006;2024-03-06T10:08:09;9.50;99.90
31263;DHT22;17892;52.080;9.006;2024-03-06T10:10:35;9.60;99.90
31263;DHT22;17892;52.080;9.006;2024-03-06T10:13:02;9.50;99.90
31263;DHT22;17892;52.080;9.006;2024-03-06T10:15:28;9.60;99.90
31263;DHT22;17892;52.080;9.006;2024-03-06T10:18:16;9.60;99.90
31263;DHT22;17892;52.080;9.006;2024-03-06T10:20:44;9.60;99.90
31263;DHT22;17892;52.080;9.006;2024-03-06T10:23:10;9.70;99.90
31263;DHT22;17892;52.080;9.006;2024-03-06T10:25:36;9.70;99.90
31263;DHT22;17892;52.080;9.006;2024-03-06T10:28:09;9.80;99.90
31263;DHT22;17892;52.080;9.006;2024-03-06T10:30:40;9.90;99.90
31263;DHT22;17892;52.080;9.006;2024-03-06T10:33:11;10.00;99.90
31263;DHT22;17892;52.080;9.006;2024-03-06T10:35:39;10.00;99.90
31263;DHT22;17892;52.080;9.006;2024-03-06T10:38:07;10.10;99.90
31263;DHT22;17892;52.080;9.006;2024-03-06T10:40:35;10.00;99.90
31263;DHT22;17892;52.080;9.006;2024-03-06T10:43:06;10.10;99.90
31263;DHT22;17892;52.080;9.006;2024-03-06T10:45:49;10.00;99.90
31263;DHT22;17892;52.080;9.006;2024-03-06T10:48:19;10.10;99.90
31263;DHT22;17892;52.080;9.006;2024-03-06T10:50:46;10.10;99.90
31263;DHT22;17892;52.080;9.006;2024-03-06T10:53:14;10.10;99.90
31263;DHT22;17892;52.080;9.006;2024-03-06T10:55:43;10.00;99.90
31263;DHT22;17892;52.080;9.006;2024-03-06T10:58:10;10.00;99.90
31263;DHT22;17892;52.080;9.006;2024-03-06T11:00:42;9.90;99.90
31263;DHT22;17892;52.080;9.006;2024-03-06T11:03:11;9.90;99.90
31263;DHT22;17892;52.080;9.006;2024-03-06T11:05:41;9.80;99.90
31263;DHT22;17892;52.080;9.006;2024-03-06T11:08:09;9.80;99.90
31263;DHT22;17892;52.080;9.006;2024-03-06T11:10:37;9.70;99.90
31263;DHT22;17892;52.080;9.006;2024-03-06T11:15:45;9.70;99.90
31263;DHT22;17892;52.080;9.006;2024-03-06T11:24:14;9.80;99.90
31263;DHT22;17892;52.080;9.006;2024-03-06T11:26:55;9.90;99.90
31263;DHT22;17892;52.080;9.006;2024-03-06T11:29:23;9.90;99.90
31263;DHT22;17892;52.080;9.006;2024-03-06T11:31:59;10.00;99.90
31263;DHT22;17892;52.080;9.006;2024-03-06T11:34:30;10.00;99.90
31263;DHT22;17892;52.080;9.006;2024-03-06T11:37:02;10.00;99.90
31263;DHT22;17892;52.080;9.006;2024-03-06T11:39:33;10.00;99.90
31263;DHT22;17892;52.080;9.006;2024-03-06T11:41:59;10.10;99.90
31263;DHT22;17892;52.080;9.006;2024-03-06T11:44:27;10.10;99.90
31263;DHT22;17892;52.080;9.006;2024-03-06T11:46:58;10.10;99.90
31263;DHT22;17892;52.080;9.006;2024-03-06T11:49:30;10.20;99.90
31263;DHT22;17892;52.080;9.006;2024-03-06T11:52:01;10.30;99.90
31263;DHT22;17892;52.080;9.006;2024-03-06T11:54:31;10.30;99.90
31263;DHT22;17892;52.080;9.006;2024-03-06T11:57:00;10.50;99.90
31263;DHT22;17892;52.080;9.006;2024-03-06T11:59:34;10.50;99.90
31263;DHT22;17892;52.080;9.006;2024-03-06T12:02:03;10.60;99.90
31263;DHT22;17892;52.080;9.006;2024-03-06T12:04:31;10.80;99.90
31263;DHT22;17892;52.080;9.006;2024-03-06T12:06:59;10.90;99.90
31263;DHT22;17892;52.080;9.006;2024-03-06T12:09:25;11.10;99.90
31263;DHT22;17892;52.080;9.006;2024-03-06T12:11:52;11.20;99.90
31263;DHT22;17892;52.080;9.006;2024-03-06T12:14:19;11.40;99.90
31263;DHT22;17892;52.080;9.006;2024-03-06T12:16:59;11.60;99.90
31263;DHT22;17892;52.080;9.006;2024-03-06T12:19:31;11.90;99.90
31263;DHT22;17892;52.080;9.006;2024-03-06T12:22:00;12.00;99.90
31263;DHT22;17892;52.080;9.006;2024-03-06T12:24:26;12.20;99.90
31263;DHT22;17892;52.080;9.006;2024-03-06T12:27:03;12.30;99.90
31263;DHT22;17892;52.080;9.006;2024-03-06T12:29:31;12.40;99.90
31263;DHT22;17892;52.080;9.006;2024-03-06T12:32:00;12.50;99.90
31263;DHT22;17892;52.080;9.006;2024-03-06T12:34:27;12.50;99.90
31263;DHT22;17892;52.080;9.006;2024-03-06T12:36:53;12.60;99.90
31263;DHT22;17892;52.080;9.006;2024-03-06T12:39:19;12.60;99.90
31263;DHT22;17892;52.080;9.006;2024-03-06T12:41:51;12.60;99.90
31263;DHT22;17892;52.080;9.006;2024-03-06T12:44:17;12.60;99.90
31263;DHT22;17892;52.080;9.006;2024-03-06T12:46:42;12.60;99.90
31263;DHT22;17892;52.080;9.006;2024-03-06T12:49:08;12.60;99.90
31263;DHT22;17892;52.080;9.006;2024-03-06T12:51:34;12.50;99.90
31263;DHT22;17892;52.080;9.006;2024-03-06T12:54:00;12.40;99.90
31263;DHT22;17892;52.080;9.006;2024-03-06T12:56:26;12.30;99.90
31263;DHT22;17892;52.080;9.006;2024-03-06T12:58:52;12.30;99.90
31263;DHT22;17892;52.080;9.006;2024-03-06T13:01:18;12.30;99.90
31263;DHT22;17892;52.080;9.006;2024-03-06T13:03:43;12.30;99.90
31263;DHT22;17892;52.080;9.006;2024-03-06T13:06:09;12.30;99.90
31263;DHT22;17892;52.080;9.006;2024-03-06T13:08:35;12.30;99.90
31263;DHT22;17892;52.080;9.006;2024-03-06T13:11:01;12.40;99.90
31263;DHT22;17892;52.080;9.006;2024-03-06T13:13:27;12.40;99.90
31263;DHT22;17892;52.080;9.006;2024-03-06T13:15:58;12.50;99.90
31263;DHT22;17892;52.080;9.006;2024-03-06T13:18:23;12.50;99.90
31263;DHT22;17892;52.080;9.006;2024-03-06T13:20:51;12.60;99.90
31263;DHT22;17892;52.080;9.006;2024-03-06T13:23:17;12.70;99.90
31263;DHT22;17892;52.080;9.006;2024-03-06T13:25:43;12.80;99.90
31263;DHT22;17892;52.080;9.006;2024-03-06T13:28:10;12.90;99.90
31263;DHT22;17892;52.080;9.006;2024-03-06T13:30:37;13.10;99.90
31263;DHT22;17892;52.080;9.006;2024-03-06T13:33:04;13.30;99.90
31263;DHT22;17892;52.080;9.006;2024-03-06T13:35:31;13.40;99.90
31263;DHT22;17892;52.080;9.006;2024-03-06T13:37:56;13.60;99.90
31263;DHT22;17892;52.080;9.006;2024-03-06T13:40:22;13.80;99.90
31263;DHT22;17892;52.080;9.006;2024-03-06T13:42:48;13.90;99.90
31263;DHT22;17892;52.080;9.006;2024-03-06T13:45:14;14.00;99.90
31263;DHT22;17892;52.080;9.006;2024-03-06T13:47:44;14.00;99.90
31263;DHT22;17892;52.080;9.006;2024-03-06T13:50:11;14.00;99.90
31263;DHT22;17892;52.080;9.006;2024-03-06T13:52:39;13.90;99.90
31263;DHT22;17892;52.080;9.006;2024-03-06T13:55:05;13.70;99.90
31263;DHT22;17892;52.080;9.006;2024-03-06T13:57:36;13.50;99.90
31263;DHT22;17892;52.080;9.006;2024-03-06T14:00:03;13.50;99.90
31263;DHT22;17892;52.080;9.006;2024-03-06T14:02:31;13.30;99.90
31263;DHT22;17892;52.080;9.006;2024-03-06T14:04:57;13.30;99.90
31263;DHT22;17892;52.080;9.006;2024-03-06T14:07:23;13.20;99.90
31263;DHT22;17892;52.080;9.006;2024-03-06T14:09:50;13.10;99.90
31263;DHT22;17892;52.080;9.006;2024-03-06T14:12:16;13.10;99.90
31263;DHT22;17892;52.080;9.006;2024-03-06T14:14:42;13.10;99.90
31263;DHT22;17892;52.080;9.006;2024-03-06T14:17:08;13.00;99.90
31263;DHT22;17892;52.080;9.006;2024-03-06T14:19:34;12.90;99.90
31263;DHT22;17892;52.080;9.006;2024-03-06T14:21:59;12.80;99.90
31263;DHT22;17892;52.080;9.006;2024-03-06T14:24:25;12.70;99.90
31263;DHT22;17892;52.080;9.006;2024-03-06T14:26:51;12.70;99.90
31263;DHT22;17892;52.080;9.006;2024-03-06T14:29:17;12.60;99.90
31263;DHT22;17892;52.080;9.006;2024-03-06T14:31:42;12.60;99.90
31263;DHT22;17892;52.080;9.006;2024-03-06T14:34:08;12.60;99.90
31263;DHT22;17892;52.080;9.006;2024-03-06T14:36:35;12.60;99.90
31263;DHT22;17892;52.080;9.006;2024-03-06T14:39:01;12.60;99.90
31263;DHT22;17892;52.080;9.006;2024-03-06T14:41:28;12.60;99.90
31263;DHT22;17892;52.080;9.006;2024-03-06T14:43:54;12.60;99.90
31263;DHT22;17892;52.080;9.006;2024-03-06T14:46:20;12.60;99.90
31263;DHT22;17892;52.080;9.006;2024-03-06T14:48:46;12.60;99.90
31263;DHT22;17892;52.080;9.006;2024-03-06T14:51:11;12.60;99.90
31263;DHT22;17892;52.080;9.006;2024-03-06T14:53:38;12.70;99.90
31263;DHT22;17892;52.080;9.006;2024-03-06T14:56:04;12.70;99.90
31263;DHT22;17892;52.080;9.006;2024-03-06T14:58:30;12.70;99.90
31263;DHT22;17892;52.080;9.006;2024-03-06T15:00:56;12.70;99.90
31263;DHT22;17892;52.080;9.006;2024-03-06T15:03:21;12.70;99.90
31263;DHT22;17892;52.080;9.006;2024-03-06T15:05:47;12.70;99.90
31263;DHT22;17892;52.080;9.006;2024-03-06T15:08:13;12.70;99.90
31263;DHT22;17892;52.080;9.006;2024-03-06T15:10:39;12.60;99.90
31263;DHT22;17892;52.080;9.006;2024-03-06T15:13:05;12.50;99.90
31263;DHT22;17892;52.080;9.006;2024-03-06T15:15:30;12.40;99.90
31263;DHT22;17892;52.080;9.006;2024-03-06T15:17:57;12.40;99.90
31263;DHT22;17892;52.080;9.006;2024-03-06T15:20:23;12.30;99.90
31263;DHT22;17892;52.080;9.006;2024-03-06T15:22:48;12.20;99.90
31263;DHT22;17892;52.080;9.006;2024-03-06T15:25:15;12.20;99.90
31263;DHT22;17892;52.080;9.006;2024-03-06T15:27:43;12.10;99.90
31263;DHT22;17892;52.080;9.006;2024-03-06T15:30:09;12.10;99.90
31263;DHT22;17892;52.080;9.006;2024-03-06T15:32:36;12.10;99.90
31263;DHT22;17892;52.080;9.006;2024-03-06T15:35:02;12.10;99.90
31263;DHT22;17892;52.080;9.006;2024-03-06T15:37:30;12.10;99.90
31263;DHT22;17892;52.080;9.006;2024-03-06T15:39:56;12.10;99.90
31263;DHT22;17892;52.080;9.006;2024-03-06T15:42:22;12.00;99.90
31263;DHT22;17892;52.080;9.006;2024-03-06T15:44:50;12.00;99.90
31263;DHT22;17892;52.080;9.006;2024-03-06T15:47:17;11.90;99.90
31263;DHT22;17892;52.080;9.006;2024-03-06T15:49:43;11.90;99.90
31263;DHT22;17892;52.080;9.006;2024-03-06T15:52:10;11.80;99.90
31263;DHT22;17892;52.080;9.006;2024-03-06T15:54:36;11.70;99.90